Aérodrome :
LOGIN :

S'inscrire | Disclaimer

   EN    FR    IT 

 










Légende :    VFR   VFR Marginal   IFR   IFR Intensif   IFR Très Intensif
Visi : 
Plafond : 
>= 8 km
>= 3000ft
5 à 8 km
1000 à 3000 ft
1500m à 5 km
500 à 1000 ft
800 à 1500m
200 à 500 ft
< 800m
< 200 ft
Symboles :   Orages  Brouillard  Fortes neiges  Fortes précipitations  Vent > 20 kt
SIGMETs :   Divers  Orages  Givrage  Turbulence  Onde Orograph.  Cendres Volcan.






- Altitude de l'aérodrome : 137 ft


LIPS - Istrana AFB Treviso

DERNIER METAR :
  • 172055Z 06006KT 0050 FG OVC001 02/00 Q1024 RMK OVC VIS MIN 0050 WIND THR26 02006KT WIND THR08 06007KT RED

METARs EXPIRÉS :
  • 171955Z 08004KT 0050 FG OVC001 01/M00 Q1023 RMK OVC VIS MIN 0050 WIND THR26 03004KT WIND THR08 07005KT RED
  • 171855Z 06007KT 0050 FG OVC001 01/M00 Q1023 RMK OVC VIS MIN 0050 WIND THR26 02008KT WIND THR08 06008KT RED

TAF TAF LIPS
Valide du 17 à 21h jusqu'au 18 à 06h UTC


172000Z 1721/1806 05005KT 1800 BR SCT005
TEMPO 1721/1806 0200 FG OVC001



MET'MAP, la Météo Aéronautique d'un coup d'oeil ! - Copyright ORBIFLY Décembre 2007 - Disclaimer

ORBIFLY MET'MAP TEAM :

Programmation & Développement : Alexandra Zaïnal
Sur une idée originale de : Baudouin d'Aumeries
Assistance à la programmation : Marc-Olivier Méhu
Soutien technique & logistique : Manuel Goepfert

Contact : metmap@orbifly.com




SOURCES & CREDITS :

   NOAA